sensor_id;sensor_type;location;lat;lon;timestamp;pressure;altitude;pressure_sealevel;temperature;humidity
82305;BME280;71914;47.382;8.168;2023-07-31T19:27:44;96368.94;;;21.66;56.29
82305;BME280;71914;47.382;8.168;2023-07-31T19:30:11;96369.97;;;21.65;56.53
82305;BME280;71914;47.382;8.168;2023-07-31T19:32:38;96366.94;;;21.62;56.13
82305;BME280;71914;47.382;8.168;2023-07-31T19:35:05;96364.13;;;21.50;56.57
82305;BME280;71914;47.382;8.168;2023-07-31T19:37:31;96367.03;;;21.42;56.61
82305;BME280;71914;47.382;8.168;2023-07-31T19:39:59;96373.25;;;21.29;57.30
82305;BME280;71914;47.382;8.168;2023-07-31T19:42:26;96374.72;;;21.25;57.00
82305;BME280;71914;47.382;8.168;2023-07-31T19:44:53;96377.00;;;21.21;56.80
82305;BME280;71914;47.382;8.168;2023-07-31T19:47:20;96378.28;;;21.12;57.55
82305;BME280;71914;47.382;8.168;2023-07-31T19:49:46;96380.34;;;21.10;57.51
82305;BME280;71914;47.382;8.168;2023-07-31T19:52:13;96386.34;;;20.92;58.50
82305;BME280;71914;47.382;8.168;2023-07-31T19:54:40;96383.91;;;20.90;58.80
82305;BME280;71914;47.382;8.168;2023-07-31T19:57:10;96380.84;;;20.86;58.72
82305;BME280;71914;47.382;8.168;2023-07-31T19:59:36;96385.34;;;20.86;58.85
82305;BME280;71914;47.382;8.168;2023-07-31T20:02:03;96376.75;;;20.84;59.01
82305;BME280;71914;47.382;8.168;2023-07-31T20:04:30;96375.94;;;20.83;58.95
82305;BME280;71914;47.382;8.168;2023-07-31T20:06:57;96361.41;;;20.86;59.46
82305;BME280;71914;47.382;8.168;2023-07-31T20:09:23;96351.94;;;20.90;59.26
82305;BME280;71914;47.382;8.168;2023-07-31T20:11:50;96347.06;;;20.87;58.92
82305;BME280;71914;47.382;8.168;2023-07-31T20:14:19;96345.47;;;20.72;58.57
82305;BME280;71914;47.382;8.168;2023-07-31T20:16:45;96342.81;;;20.66;59.03
82305;BME280;71914;47.382;8.168;2023-07-31T20:19:12;96336.25;;;20.62;59.57
82305;BME280;71914;47.382;8.168;2023-07-31T20:21:39;96349.56;;;20.62;59.12
82305;BME280;71914;47.382;8.168;2023-07-31T20:24:07;96345.13;;;20.49;60.61
82305;BME280;71914;47.382;8.168;2023-07-31T20:26:34;96355.56;;;20.44;60.54
82305;BME280;71914;47.382;8.168;2023-07-31T20:29:01;96344.78;;;20.25;61.58
82305;BME280;71914;47.382;8.168;2023-07-31T20:31:29;96349.06;;;20.19;60.55
82305;BME280;71914;47.382;8.168;2023-07-31T20:33:57;96347.44;;;20.25;60.79
82305;BME280;71914;47.382;8.168;2023-07-31T20:36:24;96347.00;;;20.28;60.67
82305;BME280;71914;47.382;8.168;2023-07-31T20:38:51;96349.25;;;20.31;60.27
82305;BME280;71914;47.382;8.168;2023-07-31T20:41:18;96343.53;;;20.34;60.54
82305;BME280;71914;47.382;8.168;2023-07-31T20:43:45;96352.50;;;20.40;60.11
82305;BME280;71914;47.382;8.168;2023-07-31T20:46:11;96351.66;;;20.53;59.58
82305;BME280;71914;47.382;8.168;2023-07-31T20:48:40;96350.25;;;20.44;60.59
82305;BME280;71914;47.382;8.168;2023-07-31T20:51:07;96337.16;;;20.42;59.78
82305;BME280;71914;47.382;8.168;2023-07-31T20:53:33;96339.19;;;20.40;60.23
82305;BME280;71914;47.382;8.168;2023-07-31T20:56:00;96334.31;;;20.37;61.16
82305;BME280;71914;47.382;8.168;2023-07-31T20:58:27;96334.72;;;20.34;61.60
82305;BME280;71914;47.382;8.168;2023-07-31T21:00:54;96332.88;;;20.21;62.43
82305;BME280;71914;47.382;8.168;2023-07-31T21:03:21;96332.91;;;20.07;62.83
82305;BME280;71914;47.382;8.168;2023-07-31T21:05:53;96332.94;;;20.01;63.03
82305;BME280;71914;47.382;8.168;2023-07-31T21:08:22;96336.41;;;19.95;63.33
82305;BME280;71914;47.382;8.168;2023-07-31T21:10:49;96338.69;;;19.91;63.91
82305;BME280;71914;47.382;8.168;2023-07-31T21:13:16;96331.50;;;19.92;63.74
82305;BME280;71914;47.382;8.168;2023-07-31T21:15:44;96321.91;;;19.90;62.78
82305;BME280;71914;47.382;8.168;2023-07-31T21:18:12;96327.63;;;19.67;64.04
82305;BME280;71914;47.382;8.168;2023-07-31T21:20:46;96333.53;;;19.49;63.14
82305;BME280;71914;47.382;8.168;2023-07-31T21:23:15;96332.91;;;19.54;62.32
82305;BME280;71914;47.382;8.168;2023-07-31T21:25:42;96332.72;;;19.55;63.03
82305;BME280;71914;47.382;8.168;2023-07-31T21:28:09;96330.06;;;19.55;65.01
82305;BME280;71914;47.382;8.168;2023-07-31T21:30:37;96335.56;;;19.54;65.63
82305;BME280;71914;47.382;8.168;2023-07-31T21:33:04;96323.72;;;19.50;65.30
82305;BME280;71914;47.382;8.168;2023-07-31T21:35:31;96318.81;;;19.47;65.24
82305;BME280;71914;47.382;8.168;2023-07-31T21:37:58;96322.91;;;19.49;65.38
82305;BME280;71914;47.382;8.168;2023-07-31T21:40:26;96310.84;;;19.53;65.57
82305;BME280;71914;47.382;8.168;2023-07-31T21:42:53;96303.28;;;19.50;65.26
82305;BME280;71914;47.382;8.168;2023-07-31T21:45:21;96307.97;;;19.48;65.34
82305;BME280;71914;47.382;8.168;2023-07-31T21:47:48;96303.09;;;19.45;64.76
82305;BME280;71914;47.382;8.168;2023-07-31T21:50:15;96305.13;;;19.43;65.38
82305;BME280;71914;47.382;8.168;2023-07-31T21:52:42;96299.00;;;19.43;65.09
82305;BME280;71914;47.382;8.168;2023-07-31T21:55:09;96292.63;;;19.37;65.25
82305;BME280;71914;47.382;8.168;2023-07-31T21:57:38;96291.03;;;19.36;65.16
82305;BME280;71914;47.382;8.168;2023-07-31T22:00:06;96297.34;;;19.35;64.93
82305;BME280;71914;47.382;8.168;2023-07-31T22:02:33;96293.69;;;19.36;64.78
82305;BME280;71914;47.382;8.168;2023-07-31T22:05:02;96291.81;;;19.30;65.64
82305;BME280;71914;47.382;8.168;2023-07-31T22:07:29;96276.47;;;19.18;66.14
82305;BME280;71914;47.382;8.168;2023-07-31T22:09:55;96274.84;;;19.11;66.83
82305;BME280;71914;47.382;8.168;2023-07-31T22:12:22;96268.94;;;19.08;66.63
82305;BME280;71914;47.382;8.168;2023-07-31T22:14:50;96259.31;;;19.01;66.43
82305;BME280;71914;47.382;8.168;2023-07-31T22:17:17;96269.72;;;19.02;66.65
82305;BME280;71914;47.382;8.168;2023-07-31T22:19:44;96260.53;;;18.98;66.43
82305;BME280;71914;47.382;8.168;2023-07-31T22:22:11;96262.38;;;18.98;66.27
82305;BME280;71914;47.382;8.168;2023-07-31T22:24:38;96258.25;;;18.88;66.59
82305;BME280;71914;47.382;8.168;2023-07-31T22:27:05;96259.69;;;18.91;66.93
82305;BME280;71914;47.382;8.168;2023-07-31T22:29:32;96258.44;;;18.87;66.83
82305;BME280;71914;47.382;8.168;2023-07-31T22:32:00;96258.44;;;18.87;67.08
82305;BME280;71914;47.382;8.168;2023-07-31T22:34:27;96248.03;;;18.85;67.28
82305;BME280;71914;47.382;8.168;2023-07-31T22:36:53;96250.13;;;18.90;67.04
82305;BME280;71914;47.382;8.168;2023-07-31T22:39:20;96243.16;;;18.89;67.92
82305;BME280;71914;47.382;8.168;2023-07-31T22:41:47;96229.78;;;18.55;69.56
82305;BME280;71914;47.382;8.168;2023-07-31T22:44:14;96227.06;;;18.35;69.69
82305;BME280;71914;47.382;8.168;2023-07-31T22:46:40;96230.34;;;18.37;69.74
82305;BME280;71914;47.382;8.168;2023-07-31T22:49:09;96226.66;;;18.38;69.72
82305;BME280;71914;47.382;8.168;2023-07-31T22:51:36;96228.31;;;18.39;69.64
82305;BME280;71914;47.382;8.168;2023-07-31T22:54:03;96215.25;;;18.45;69.23
82305;BME280;71914;47.382;8.168;2023-07-31T22:56:29;96215.06;;;18.46;69.11
82305;BME280;71914;47.382;8.168;2023-07-31T22:58:56;96213.25;;;18.47;68.85
82305;BME280;71914;47.382;8.168;2023-07-31T23:01:23;96211.59;;;18.46;68.79
82305;BME280;71914;47.382;8.168;2023-07-31T23:03:50;96207.53;;;18.50;68.29
82305;BME280;71914;47.382;8.168;2023-07-31T23:06:18;96192.63;;;18.55;68.20
82305;BME280;71914;47.382;8.168;2023-07-31T23:08:45;96191.63;;;18.56;67.77
82305;BME280;71914;47.382;8.168;2023-07-31T23:11:12;96187.16;;;18.57;67.60
82305;BME280;71914;47.382;8.168;2023-07-31T23:13:39;96173.66;;;18.52;68.13
82305;BME280;71914;47.382;8.168;2023-07-31T23:16:06;96179.75;;;18.46;68.82
82305;BME280;71914;47.382;8.168;2023-07-31T23:18:33;96172.59;;;18.39;69.90
82305;BME280;71914;47.382;8.168;2023-07-31T23:20:59;96178.53;;;18.35;69.93
82305;BME280;71914;47.382;8.168;2023-07-31T23:23:27;96175.88;;;18.35;69.83
82305;BME280;71914;47.382;8.168;2023-07-31T23:25:54;96166.69;;;18.37;69.88
82305;BME280;71914;47.382;8.168;2023-07-31T23:28:21;96164.44;;;18.41;69.32
82305;BME280;71914;47.382;8.168;2023-07-31T23:30:47;96172.22;;;18.42;69.38
82305;BME280;71914;47.382;8.168;2023-07-31T23:33:14;96151.81;;;18.56;68.99
82305;BME280;71914;47.382;8.168;2023-07-31T23:35:41;96149.16;;;18.50;68.80
82305;BME280;71914;47.382;8.168;2023-07-31T23:38:07;96142.63;;;18.52;68.65
82305;BME280;71914;47.382;8.168;2023-07-31T23:40:36;96132.03;;;18.52;68.75
82305;BME280;71914;47.382;8.168;2023-07-31T23:43:03;96125.91;;;18.52;69.35
82305;BME280;71914;47.382;8.168;2023-07-31T23:45:29;96125.09;;;18.51;69.45
82305;BME280;71914;47.382;8.168;2023-07-31T23:47:56;96133.25;;;18.50;69.45
82305;BME280;71914;47.382;8.168;2023-07-31T23:50:25;96131.38;;;18.44;69.37
82305;BME280;71914;47.382;8.168;2023-07-31T23:52:51;96125.69;;;18.40;69.11
82305;BME280;71914;47.382;8.168;2023-07-31T23:55:18;96123.00;;;18.27;70.28
82305;BME280;71914;47.382;8.168;2023-07-31T23:57:47;96103.38;;;18.07;70.56
